createdAt,value
2022-08-17T00:00:43.215Z,2.20
2022-08-17T00:01:37.857Z,2.40
2022-08-17T00:02:31.664Z,2.20
2022-08-17T00:03:31.600Z,2.60
2022-08-17T00:04:31.644Z,2.70
2022-08-17T00:05:31.583Z,2.70
2022-08-17T00:06:31.569Z,2.40
2022-08-17T00:07:31.553Z,2.20
2022-08-17T00:08:31.537Z,2.70
2022-08-17T00:09:31.533Z,2.30
2022-08-17T00:10:32.469Z,2.70
2022-08-17T00:11:31.532Z,2.30
2022-08-17T00:12:42.807Z,2.60
2022-08-17T00:13:31.498Z,2.60
2022-08-17T00:14:31.478Z,2.70
2022-08-17T00:15:31.464Z,2.50
2022-08-17T00:16:57.474Z,2.60
2022-08-17T00:17:31.453Z,2.80
2022-08-17T00:19:01.093Z,2.30
2022-08-17T00:19:31.432Z,2.00
2022-08-17T00:20:34.911Z,2.60
2022-08-17T00:22:14.761Z,2.60
2022-08-17T00:22:37.953Z,2.30
2022-08-17T00:23:31.392Z,2.90
2022-08-17T00:24:31.379Z,2.40
2022-08-17T00:25:31.372Z,2.40
2022-08-17T00:26:43.144Z,2.30
2022-08-17T00:27:31.352Z,2.40
2022-08-17T00:28:33.247Z,3.00
2022-08-17T00:29:31.325Z,2.50
2022-08-17T00:30:31.324Z,2.50
2022-08-17T00:31:31.359Z,2.50
2022-08-17T00:33:13.602Z,2.30
2022-08-17T00:33:31.730Z,2.20
2022-08-17T00:34:31.284Z,2.30
2022-08-17T00:35:31.270Z,2.50
2022-08-17T00:36:31.278Z,2.90
2022-08-17T00:37:31.247Z,2.70
2022-08-17T00:38:31.247Z,2.20
2022-08-17T00:39:31.268Z,2.00
2022-08-17T00:40:40.072Z,2.10
2022-08-17T00:41:31.233Z,2.50
2022-08-17T00:42:31.476Z,2.20
2022-08-17T00:43:31.194Z,2.60
2022-08-17T00:44:31.349Z,2.10
2022-08-17T00:45:31.168Z,2.30
2022-08-17T00:46:31.178Z,2.50
2022-08-17T00:47:31.147Z,2.10
2022-08-17T00:48:31.147Z,2.40
2022-08-17T00:49:31.130Z,3.00
2022-08-17T00:50:31.126Z,2.80
2022-08-17T00:51:31.126Z,2.30
2022-08-17T00:52:31.118Z,2.30
2022-08-17T00:53:31.089Z,2.20
2022-08-17T00:54:31.085Z,2.30
2022-08-17T00:55:31.072Z,2.30
2022-08-17T00:56:31.081Z,2.50
2022-08-17T00:57:31.055Z,2.60
2022-08-17T00:58:36.231Z,2.40
2022-08-17T00:59:31.039Z,2.50
2022-08-17T01:00:31.027Z,2.90
2022-08-17T01:01:31.080Z,2.60
2022-08-17T01:02:34.437Z,2.20
2022-08-17T01:03:31.001Z,3.00
2022-08-17T01:04:30.988Z,2.90
2022-08-17T01:05:30.976Z,2.70
2022-08-17T01:06:30.982Z,3.00
2022-08-17T01:07:30.952Z,2.60
2022-08-17T01:08:30.951Z,2.60
2022-08-17T01:09:30.932Z,2.60
2022-08-17T01:10:58.301Z,2.40
2022-08-17T01:11:36.923Z,2.50
2022-08-17T01:12:30.909Z,2.60
2022-08-17T01:13:32.833Z,2.60
2022-08-17T01:14:30.888Z,2.70
2022-08-17T01:15:30.877Z,2.10
2022-08-17T01:16:30.888Z,2.40
2022-08-17T01:17:30.855Z,2.20
2022-08-17T01:18:30.847Z,2.80
2022-08-17T01:19:30.836Z,2.90
2022-08-17T01:20:30.836Z,2.70
2022-08-17T01:21:30.836Z,2.70
2022-08-17T01:22:30.814Z,2.20
2022-08-17T01:23:30.799Z,2.40
2022-08-17T01:24:30.792Z,2.40
2022-08-17T01:25:30.782Z,2.30
2022-08-17T01:26:30.786Z,2.10
2022-08-17T01:27:30.757Z,2.70
2022-08-17T01:28:36.373Z,2.40
2022-08-17T01:29:30.744Z,2.60
2022-08-17T01:30:58.620Z,2.30
2022-08-17T01:31:30.743Z,2.70
2022-08-17T01:32:30.719Z,2.30
2022-08-17T01:33:30.702Z,2.40
2022-08-17T01:34:33.450Z,2.20
2022-08-17T01:35:30.696Z,2.50
2022-08-17T01:36:30.703Z,2.00
2022-08-17T01:37:30.664Z,2.70
2022-08-17T01:38:30.656Z,2.40
2022-08-17T01:39:30.671Z,2.80
2022-08-17T01:40:30.639Z,2.20
2022-08-17T01:41:30.637Z,2.70
2022-08-17T01:42:30.616Z,2.50
2022-08-17T01:43:30.602Z,3.10
2022-08-17T01:44:30.596Z,2.50
2022-08-17T01:45:30.582Z,2.30
2022-08-17T01:46:30.590Z,2.70
2022-08-17T01:47:30.562Z,2.50
2022-08-17T01:48:30.654Z,2.60
2022-08-17T01:49:30.546Z,2.40
2022-08-17T01:50:30.540Z,2.40
2022-08-17T01:51:30.540Z,3.20
2022-08-17T01:52:30.520Z,2.60
2022-08-17T01:53:30.503Z,2.60
2022-08-17T01:54:30.496Z,2.50
2022-08-17T01:55:30.481Z,2.40
2022-08-17T01:56:30.492Z,2.30
2022-08-17T01:57:30.462Z,2.40
2022-08-17T01:58:30.463Z,2.60
2022-08-17T01:59:30.449Z,2.30
2022-08-17T02:00:47.257Z,2.50
2022-08-17T02:01:30.476Z,3.00
2022-08-17T02:02:31.576Z,2.80
2022-08-17T02:03:30.404Z,2.50
2022-08-17T02:04:30.402Z,2.60
2022-08-17T02:05:30.385Z,2.70
2022-08-17T02:06:30.396Z,2.30
2022-08-17T02:07:30.367Z,2.10
2022-08-17T02:08:39.563Z,2.30
2022-08-17T02:09:30.351Z,2.40
2022-08-17T02:10:33.640Z,2.60
2022-08-17T02:11:30.338Z,2.20
2022-08-17T02:12:38.924Z,2.70
2022-08-17T02:13:30.312Z,2.40
2022-08-17T02:14:30.304Z,2.30
2022-08-17T02:15:30.290Z,2.20
2022-08-17T02:16:37.098Z,2.40
2022-08-17T02:17:30.271Z,1.90
2022-08-17T02:18:30.262Z,2.20
2022-08-17T02:19:30.253Z,2.30
2022-08-17T02:20:42.611Z,2.30
2022-08-17T02:21:30.235Z,2.10
2022-08-17T02:22:30.237Z,2.30
2022-08-17T02:23:30.211Z,2.30
2022-08-17T02:24:58.655Z,2.20
2022-08-17T02:25:30.270Z,2.20
2022-08-17T02:26:30.198Z,1.90
2022-08-17T02:27:30.167Z,1.90
2022-08-17T02:28:30.168Z,2.00
2022-08-17T02:29:30.155Z,2.80
2022-08-17T02:30:59.370Z,2.30
2022-08-17T02:31:30.150Z,2.00
2022-08-17T02:32:30.127Z,2.00
2022-08-17T02:33:41.990Z,1.60
2022-08-17T02:34:30.128Z,2.00
2022-08-17T02:35:30.089Z,1.90
2022-08-17T02:36:30.105Z,2.00
2022-08-17T02:37:30.100Z,2.10
2022-08-17T02:38:30.066Z,2.30
2022-08-17T02:39:30.116Z,2.00
2022-08-17T02:40:36.247Z,1.90
2022-08-17T02:41:30.050Z,2.00
2022-08-17T02:42:30.027Z,2.00
2022-08-17T02:43:30.010Z,1.90
2022-08-17T02:44:35.513Z,2.20
2022-08-17T02:45:29.998Z,2.40
2022-08-17T02:46:30.005Z,2.30
2022-08-17T02:47:29.977Z,1.70
2022-08-17T02:48:31.260Z,1.90
2022-08-17T02:49:29.952Z,2.00
2022-08-17T02:50:29.949Z,1.80
2022-08-17T02:51:29.947Z,2.00
2022-08-17T02:52:42.565Z,2.10
2022-08-17T02:53:35.527Z,1.80
2022-08-17T02:54:41.291Z,1.90
2022-08-17T02:55:29.903Z,2.10
2022-08-17T02:56:29.905Z,1.90
2022-08-17T02:57:29.874Z,2.40
2022-08-17T02:58:34.946Z,1.60
2022-08-17T02:59:29.864Z,1.90
2022-08-17T03:00:29.847Z,2.20
2022-08-17T03:01:29.906Z,2.80
2022-08-17T03:02:29.832Z,2.10
2022-08-17T03:03:29.825Z,1.80
2022-08-17T03:04:29.813Z,1.90
2022-08-17T03:05:29.802Z,1.90
2022-08-17T03:06:29.804Z,1.90
2022-08-17T03:07:29.779Z,1.80
2022-08-17T03:08:29.778Z,1.70
2022-08-17T03:09:29.762Z,2.00
2022-08-17T03:10:29.754Z,1.70
2022-08-17T03:11:29.753Z,1.70
2022-08-17T03:12:29.736Z,2.10
2022-08-17T03:13:29.720Z,1.80
2022-08-17T03:14:29.717Z,1.60
2022-08-17T03:15:29.699Z,2.30
2022-08-17T03:16:29.704Z,2.00
2022-08-17T03:17:29.680Z,2.10
2022-08-17T03:18:29.673Z,1.70
2022-08-17T03:19:29.660Z,2.10
2022-08-17T03:20:29.653Z,2.10
2022-08-17T03:21:29.651Z,2.30
2022-08-17T03:22:36.483Z,2.20
2022-08-17T03:23:30.351Z,2.30
2022-08-17T03:24:29.631Z,2.50
2022-08-17T03:25:29.596Z,2.30
2022-08-17T03:26:29.930Z,2.30
2022-08-17T03:27:29.579Z,2.60
2022-08-17T03:28:29.573Z,2.10
2022-08-17T03:29:29.563Z,1.90
2022-08-17T03:30:29.556Z,2.20
2022-08-17T03:31:29.547Z,2.30
2022-08-17T03:32:29.546Z,2.10
2022-08-17T03:33:29.523Z,2.20
2022-08-17T03:34:29.522Z,2.80
2022-08-17T03:35:29.499Z,2.30
2022-08-17T03:36:29.492Z,2.60
2022-08-17T03:37:29.490Z,2.20
2022-08-17T03:38:29.474Z,1.60
2022-08-17T03:39:29.522Z,1.80
2022-08-17T03:40:34.465Z,2.20
2022-08-17T03:41:29.443Z,1.90
2022-08-17T03:42:32.262Z,2.10
2022-08-17T03:43:29.472Z,2.30
2022-08-17T03:44:29.408Z,2.00
2022-08-17T03:45:29.396Z,1.80
2022-08-17T03:46:35.348Z,2.20
2022-08-17T03:47:29.401Z,1.70
2022-08-17T03:48:29.380Z,2.00
2022-08-17T03:49:29.359Z,1.40
2022-08-17T03:50:29.356Z,1.80
2022-08-17T03:51:29.339Z,2.20
2022-08-17T03:52:29.347Z,2.20
2022-08-17T03:53:29.328Z,1.70
2022-08-17T03:54:29.317Z,2.10
2022-08-17T03:55:30.763Z,1.60
2022-08-17T03:56:29.305Z,1.30
2022-08-17T03:57:29.299Z,1.90
2022-08-17T03:58:29.275Z,1.90
2022-08-17T03:59:29.263Z,1.90
2022-08-17T04:00:29.257Z,2.10
2022-08-17T04:01:29.303Z,2.00
2022-08-17T04:02:29.252Z,1.40
2022-08-17T04:03:29.221Z,1.70
2022-08-17T04:04:29.216Z,1.50
2022-08-17T04:05:29.201Z,1.50
2022-08-17T04:06:29.196Z,1.60
2022-08-17T04:07:29.193Z,1.50
2022-08-17T04:08:29.180Z,1.90
2022-08-17T04:09:29.169Z,1.70
2022-08-17T04:10:29.158Z,1.60
2022-08-17T04:11:29.167Z,1.60
2022-08-17T04:12:29.138Z,1.60
2022-08-17T04:13:29.124Z,1.90
2022-08-17T04:14:29.116Z,1.70
2022-08-17T04:15:29.102Z,1.70
2022-08-17T04:16:29.112Z,1.60
2022-08-17T04:17:29.110Z,1.50
2022-08-17T04:18:29.081Z,1.70
2022-08-17T04:19:29.064Z,1.50
2022-08-17T04:20:29.060Z,1.60
2022-08-17T04:21:29.079Z,1.70
2022-08-17T04:22:33.378Z,1.80
2022-08-17T04:23:29.032Z,1.80
2022-08-17T04:24:29.020Z,1.70
2022-08-17T04:25:29.006Z,1.80
2022-08-17T04:26:52.831Z,1.50
2022-08-17T04:27:29.008Z,1.80
2022-08-17T04:28:28.974Z,1.70
2022-08-17T04:29:28.969Z,2.00
2022-08-17T04:30:28.962Z,1.80
2022-08-17T04:31:28.952Z,2.00
2022-08-17T04:33:03.746Z,1.80
2022-08-17T04:33:28.938Z,1.40
2022-08-17T04:34:28.916Z,2.00
2022-08-17T04:35:28.908Z,1.40
2022-08-17T04:36:28.895Z,1.80
2022-08-17T04:37:28.905Z,2.00
2022-08-17T04:38:28.875Z,1.70
2022-08-17T04:39:28.924Z,1.70
2022-08-17T04:40:28.856Z,1.60
2022-08-17T04:41:28.852Z,1.90
2022-08-17T04:42:28.853Z,1.40
2022-08-17T04:43:28.835Z,1.80
2022-08-17T04:44:37.409Z,1.60
2022-08-17T04:45:32.096Z,1.60
2022-08-17T04:46:28.806Z,1.70
2022-08-17T04:47:28.820Z,2.00
2022-08-17T04:48:35.322Z,1.30
2022-08-17T04:49:28.816Z,1.60
2022-08-17T04:50:28.763Z,1.70
2022-08-17T04:51:28.749Z,1.80
2022-08-17T04:52:29.675Z,2.10
2022-08-17T04:53:28.745Z,1.90
2022-08-17T04:54:28.721Z,2.30
2022-08-17T04:55:28.721Z,2.50
2022-08-17T04:56:28.704Z,2.10
2022-08-17T04:57:28.708Z,2.00
2022-08-17T04:58:28.681Z,2.30
2022-08-17T04:59:28.676Z,1.90
2022-08-17T05:00:28.713Z,1.90
2022-08-17T05:01:28.723Z,1.80
2022-08-17T05:02:28.661Z,1.80
2022-08-17T05:03:28.635Z,2.30
2022-08-17T05:04:33.938Z,2.10
2022-08-17T05:05:28.622Z,2.00
2022-08-17T05:06:28.607Z,1.90
2022-08-17T05:07:31.616Z,1.70
2022-08-17T05:08:28.579Z,1.80
2022-08-17T05:09:28.582Z,1.80
2022-08-17T05:10:28.573Z,2.10
2022-08-17T05:11:28.561Z,2.00
2022-08-17T05:12:28.564Z,1.80
2022-08-17T05:13:28.536Z,1.80
2022-08-17T05:14:32.418Z,1.70
2022-08-17T05:15:28.524Z,1.70
2022-08-17T05:16:28.508Z,2.20
2022-08-17T05:17:28.499Z,2.10
2022-08-17T05:18:28.492Z,2.00
2022-08-17T05:19:28.479Z,1.80
2022-08-17T05:20:28.467Z,2.00
2022-08-17T05:21:28.459Z,2.30
2022-08-17T05:22:28.442Z,2.30
2022-08-17T05:23:36.542Z,1.80
2022-08-17T05:24:40.765Z,2.30
2022-08-17T05:25:28.424Z,1.90
2022-08-17T05:26:29.322Z,2.00
2022-08-17T05:27:29.798Z,1.80
2022-08-17T05:28:28.414Z,1.90
2022-08-17T05:29:35.240Z,1.80
2022-08-17T05:30:28.371Z,2.20
2022-08-17T05:31:28.362Z,2.00
2022-08-17T05:32:38.256Z,2.10
2022-08-17T05:33:28.363Z,2.10
2022-08-17T05:34:28.333Z,2.20
2022-08-17T05:35:28.322Z,2.10
2022-08-17T05:36:43.213Z,2.20
2022-08-17T05:37:28.312Z,1.70
2022-08-17T05:38:28.301Z,2.70
2022-08-17T05:39:28.312Z,2.10
2022-08-17T05:40:28.267Z,2.20
2022-08-17T05:41:28.262Z,2.20
2022-08-17T05:42:28.258Z,2.20
2022-08-17T05:43:28.264Z,2.30
2022-08-17T05:44:28.232Z,2.40
2022-08-17T05:45:54.533Z,2.30
2022-08-17T05:46:28.215Z,2.00
2022-08-17T05:47:28.206Z,2.50
2022-08-17T05:48:39.035Z,2.10
2022-08-17T05:49:28.198Z,2.20
2022-08-17T05:50:29.886Z,2.30
2022-08-17T05:51:28.172Z,2.60
2022-08-17T05:52:28.163Z,2.50
2022-08-17T05:53:28.158Z,2.10
2022-08-17T05:54:28.132Z,2.40
2022-08-17T05:55:28.123Z,2.40
2022-08-17T05:56:29.714Z,2.70
2022-08-17T05:57:28.106Z,2.40
2022-08-17T05:58:28.108Z,2.40
2022-08-17T05:59:28.089Z,3.10
2022-08-17T06:00:30.581Z,2.70
2022-08-17T06:01:28.155Z,3.20
2022-08-17T06:02:28.051Z,3.50
2022-08-17T06:03:28.063Z,3.20
2022-08-17T06:04:28.033Z,2.60
2022-08-17T06:05:28.026Z,2.60
2022-08-17T06:06:31.371Z,3.20
2022-08-17T06:07:28.007Z,2.40
2022-08-17T06:08:28.009Z,2.70
2022-08-17T06:09:33.415Z,2.70
2022-08-17T06:10:28.056Z,2.90
2022-08-17T06:11:27.975Z,3.20
2022-08-17T06:12:27.960Z,3.00
2022-08-17T06:13:27.962Z,3.50
2022-08-17T06:14:27.934Z,2.50
2022-08-17T06:15:27.930Z,3.00
2022-08-17T06:16:34.294Z,3.00
2022-08-17T06:17:27.929Z,2.70
2022-08-17T06:18:27.912Z,3.50
2022-08-17T06:19:27.893Z,2.60
2022-08-17T06:20:27.969Z,3.00
2022-08-17T06:21:31.982Z,3.20
2022-08-17T06:22:27.865Z,2.80
2022-08-17T06:23:27.875Z,3.30
2022-08-17T06:24:27.836Z,3.20
2022-08-17T06:25:27.835Z,3.50
2022-08-17T06:26:37.310Z,3.20
2022-08-17T06:27:27.900Z,3.30
2022-08-17T06:28:27.818Z,3.20
2022-08-17T06:29:27.796Z,3.30
2022-08-17T06:30:27.838Z,2.90
2022-08-17T06:31:27.775Z,3.10
2022-08-17T06:32:27.760Z,2.90
2022-08-17T06:33:27.768Z,3.40
2022-08-17T06:34:27.755Z,3.00
2022-08-17T06:35:32.016Z,2.50
2022-08-17T06:36:27.725Z,3.00
2022-08-17T06:37:27.716Z,3.20
2022-08-17T06:38:37.098Z,2.80
2022-08-17T06:39:27.802Z,3.20
2022-08-17T06:40:27.776Z,3.60
2022-08-17T06:41:27.676Z,2.90
2022-08-17T06:43:05.243Z,3.00
2022-08-17T06:43:27.669Z,3.20
2022-08-17T06:44:43.669Z,3.50
2022-08-17T06:45:27.649Z,2.90
2022-08-17T06:46:27.622Z,2.80
2022-08-17T06:47:28.141Z,3.20
2022-08-17T06:48:27.604Z,2.60
2022-08-17T06:49:27.612Z,3.20
2022-08-17T06:50:27.587Z,2.60
2022-08-17T06:51:27.591Z,2.90
2022-08-17T06:52:43.419Z,3.10
2022-08-17T06:53:27.567Z,3.70
2022-08-17T06:54:27.562Z,3.10
2022-08-17T06:55:27.541Z,3.00
2022-08-17T06:56:53.808Z,2.50
2022-08-17T06:57:27.529Z,3.20
2022-08-17T06:58:29.492Z,2.50
2022-08-17T06:59:53.261Z,2.80
2022-08-17T07:00:27.621Z,2.70
2022-08-17T07:01:27.604Z,2.40
2022-08-17T07:02:29.442Z,2.50
2022-08-17T07:03:27.479Z,2.60
2022-08-17T07:04:27.457Z,2.80
2022-08-17T07:05:27.447Z,2.30
2022-08-17T07:06:27.428Z,2.90
2022-08-17T07:07:27.420Z,3.00
2022-08-17T07:08:30.553Z,2.60
2022-08-17T07:09:27.411Z,2.60
2022-08-17T07:10:27.390Z,2.70
2022-08-17T07:11:27.385Z,2.30
2022-08-17T07:12:33.369Z,2.60
2022-08-17T07:13:27.381Z,2.80
2022-08-17T07:14:27.968Z,2.40
2022-08-17T07:15:27.348Z,2.40
2022-08-17T07:16:27.333Z,2.40
2022-08-17T07:17:46.390Z,2.60
2022-08-17T07:18:27.330Z,2.70
2022-08-17T07:19:27.306Z,2.40
2022-08-17T07:20:27.290Z,2.10
2022-08-17T07:21:27.290Z,2.80
2022-08-17T07:22:27.272Z,2.50
2022-08-17T07:23:27.279Z,2.20
2022-08-17T07:24:29.839Z,2.90
2022-08-17T07:25:27.249Z,2.60
2022-08-17T07:26:27.232Z,2.10
2022-08-17T07:27:27.227Z,2.40
2022-08-17T07:28:27.227Z,2.80
2022-08-17T07:29:27.206Z,1.80
2022-08-17T07:30:27.192Z,2.50
2022-08-17T07:31:27.190Z,2.60
2022-08-17T07:32:27.175Z,2.30
2022-08-17T07:33:27.186Z,2.70
2022-08-17T07:34:27.153Z,2.90
2022-08-17T07:35:31.248Z,2.70
2022-08-17T07:36:29.947Z,2.70
2022-08-17T07:37:27.129Z,2.30
2022-08-17T07:38:27.244Z,2.30
2022-08-17T07:39:27.176Z,2.80
2022-08-17T07:40:27.242Z,3.00
2022-08-17T07:41:27.092Z,2.70
2022-08-17T07:42:27.084Z,2.60
2022-08-17T07:43:27.698Z,2.40
2022-08-17T07:44:27.056Z,2.50
2022-08-17T07:45:27.049Z,2.20
2022-08-17T07:46:27.044Z,2.90
2022-08-17T07:47:27.031Z,2.80
2022-08-17T07:48:27.033Z,2.80
2022-08-17T07:49:27.010Z,2.50
2022-08-17T07:50:27.066Z,2.60
2022-08-17T07:51:26.996Z,2.50
2022-08-17T07:52:50.484Z,2.70
2022-08-17T07:53:26.990Z,2.50
2022-08-17T07:54:26.961Z,2.50
2022-08-17T07:55:26.972Z,2.70
2022-08-17T07:56:26.939Z,2.30
2022-08-17T07:57:30.044Z,2.40
2022-08-17T07:58:26.930Z,2.50
2022-08-17T07:59:28.649Z,2.30
2022-08-17T08:00:31.529Z,2.40
2022-08-17T08:01:26.983Z,2.30
2022-08-17T08:02:31.117Z,2.70
2022-08-17T08:03:26.897Z,2.80
2022-08-17T08:04:59.262Z,2.60
2022-08-17T08:05:49.519Z,2.70
2022-08-17T08:06:26.859Z,2.80
2022-08-17T08:07:26.838Z,2.70
2022-08-17T08:08:26.837Z,2.90
2022-08-17T08:09:26.816Z,2.30
2022-08-17T08:10:26.802Z,3.00
2022-08-17T08:11:26.800Z,3.10
2022-08-17T08:12:28.976Z,2.90
2022-08-17T08:13:26.781Z,2.50
2022-08-17T08:14:28.572Z,2.80
2022-08-17T08:15:26.759Z,2.80
2022-08-17T08:16:26.745Z,2.90
2022-08-17T08:17:26.735Z,2.50
2022-08-17T08:18:54.719Z,2.80
2022-08-17T08:19:26.739Z,2.60
2022-08-17T08:20:52.386Z,2.60
2022-08-17T08:21:26.704Z,2.70
2022-08-17T08:22:26.683Z,2.60
2022-08-17T08:23:26.681Z,2.80
2022-08-17T08:24:30.166Z,2.70
2022-08-17T08:25:28.692Z,2.90
2022-08-17T08:26:26.643Z,2.50
2022-08-17T08:27:26.639Z,2.60
2022-08-17T08:28:26.623Z,2.50
2022-08-17T08:29:26.634Z,2.80
2022-08-17T08:30:26.603Z,2.90
2022-08-17T08:31:26.599Z,2.70
2022-08-17T08:32:26.586Z,2.30
2022-08-17T08:33:26.579Z,2.20
2022-08-17T08:35:00.782Z,2.40
2022-08-17T08:35:26.594Z,2.50
2022-08-17T08:36:57.010Z,2.40
2022-08-17T08:37:33.902Z,2.00
2022-08-17T08:38:26.530Z,3.00
2022-08-17T08:39:26.583Z,2.80
2022-08-17T08:40:26.504Z,2.90
2022-08-17T08:41:26.499Z,2.90
2022-08-17T08:42:26.492Z,3.20
2022-08-17T08:43:26.479Z,3.00
2022-08-17T08:45:00.663Z,3.30
2022-08-17T08:45:26.465Z,3.10
2022-08-17T08:46:26.452Z,3.10
2022-08-17T08:47:26.436Z,2.80
2022-08-17T08:48:52.840Z,2.60
2022-08-17T08:49:45.587Z,3.00
2022-08-17T08:50:37.377Z,3.10
2022-08-17T08:51:26.406Z,2.80
2022-08-17T08:52:26.399Z,3.70
2022-08-17T08:53:26.380Z,3.00
2022-08-17T08:54:26.733Z,2.70
2022-08-17T08:55:26.367Z,2.80
2022-08-17T08:56:26.361Z,2.70
2022-08-17T08:57:32.816Z,3.60
2022-08-17T08:58:31.592Z,2.80
2022-08-17T08:59:26.344Z,3.00
2022-08-17T09:00:26.313Z,3.20
2022-08-17T09:01:26.363Z,2.80
2022-08-17T09:02:26.304Z,2.70
2022-08-17T09:03:51.255Z,3.10
2022-08-17T09:04:26.283Z,2.70
2022-08-17T09:05:26.263Z,3.00
2022-08-17T09:06:37.872Z,2.80
2022-08-17T09:07:26.249Z,3.00
2022-08-17T09:08:26.236Z,3.20
2022-08-17T09:09:26.239Z,3.30
2022-08-17T09:10:26.216Z,2.40
2022-08-17T09:11:26.201Z,2.80
2022-08-17T09:12:26.201Z,3.20
2022-08-17T09:13:26.183Z,2.90
2022-08-17T09:14:28.207Z,3.00
2022-08-17T09:15:26.164Z,3.10
2022-08-17T09:16:26.160Z,2.50
2022-08-17T09:17:26.153Z,3.40
2022-08-17T09:19:02.676Z,3.00
2022-08-17T09:19:26.147Z,2.80
2022-08-17T09:20:28.088Z,2.90
2022-08-17T09:21:26.105Z,3.30
2022-08-17T09:22:26.102Z,2.70
2022-08-17T09:23:26.087Z,2.90
2022-08-17T09:24:26.272Z,3.40
2022-08-17T09:25:26.082Z,3.10
2022-08-17T09:26:26.065Z,3.60
2022-08-17T09:27:26.053Z,2.80
2022-08-17T09:28:26.048Z,2.90
2022-08-17T09:29:26.042Z,2.60
2022-08-17T09:30:26.025Z,3.00
2022-08-17T09:31:29.954Z,2.60
2022-08-17T09:32:26.007Z,2.90
2022-08-17T09:33:25.994Z,3.20
2022-08-17T09:34:29.612Z,3.50
2022-08-17T09:35:32.881Z,2.60
2022-08-17T09:36:25.972Z,3.00
2022-08-17T09:37:25.960Z,3.50
2022-08-17T09:38:29.206Z,3.90
2022-08-17T09:39:26.016Z,3.10
2022-08-17T09:40:25.929Z,3.50
2022-08-17T09:41:25.910Z,3.10
2022-08-17T09:42:25.905Z,3.70
2022-08-17T09:43:25.889Z,2.80
2022-08-17T09:44:25.884Z,3.30
2022-08-17T09:45:25.883Z,3.10
2022-08-17T09:46:25.866Z,3.20
2022-08-17T09:47:25.850Z,3.20
2022-08-17T09:48:25.847Z,3.20
2022-08-17T09:49:25.832Z,2.80
2022-08-17T09:50:55.271Z,3.20
2022-08-17T09:51:25.816Z,3.60
2022-08-17T09:52:25.806Z,3.20
2022-08-17T09:53:25.791Z,3.20
2022-08-17T09:54:41.146Z,3.20
2022-08-17T09:55:25.787Z,3.30
2022-08-17T09:56:25.765Z,2.70
2022-08-17T09:57:30.440Z,2.90
2022-08-17T09:58:29.244Z,3.30
2022-08-17T09:59:25.730Z,3.10
2022-08-17T10:00:25.739Z,3.30
2022-08-17T10:01:25.798Z,3.30
2022-08-17T10:02:25.703Z,3.30
2022-08-17T10:03:25.693Z,3.10
2022-08-17T10:04:29.534Z,2.80
2022-08-17T10:05:25.692Z,3.20
2022-08-17T10:06:25.668Z,3.00
2022-08-17T10:07:25.656Z,3.50
2022-08-17T10:08:25.646Z,3.40
2022-08-17T10:09:25.635Z,2.90
2022-08-17T10:10:25.652Z,3.30
2022-08-17T10:11:33.273Z,3.80
2022-08-17T10:12:30.272Z,3.80
2022-08-17T10:13:25.595Z,3.80
2022-08-17T10:14:37.694Z,4.30
2022-08-17T10:15:25.601Z,3.80
2022-08-17T10:16:25.570Z,3.30
2022-08-17T10:17:25.552Z,3.60
2022-08-17T10:18:25.554Z,3.10
2022-08-17T10:19:25.539Z,3.40
2022-08-17T10:20:25.547Z,3.50
2022-08-17T10:21:25.514Z,3.90
2022-08-17T10:22:35.309Z,3.20
2022-08-17T10:23:25.501Z,3.70
2022-08-17T10:24:25.495Z,3.40
2022-08-17T10:25:33.438Z,3.50
2022-08-17T10:26:25.479Z,3.20
2022-08-17T10:27:25.455Z,3.60
2022-08-17T10:28:29.472Z,2.90
2022-08-17T10:29:25.453Z,3.20
2022-08-17T10:30:25.456Z,3.20
2022-08-17T10:31:40.823Z,3.50
2022-08-17T10:32:25.418Z,3.00
2022-08-17T10:33:25.412Z,3.40
2022-08-17T10:34:25.397Z,3.50
2022-08-17T10:35:25.394Z,3.30
2022-08-17T10:36:25.376Z,3.40
2022-08-17T10:37:25.364Z,4.00
2022-08-17T10:38:25.379Z,4.10
2022-08-17T10:39:25.408Z,4.20
2022-08-17T10:40:26.526Z,4.20
2022-08-17T10:41:25.318Z,3.80
2022-08-17T10:42:32.441Z,3.40
2022-08-17T10:43:25.304Z,3.60
2022-08-17T10:44:38.860Z,3.30
2022-08-17T10:45:25.352Z,3.30
2022-08-17T10:46:31.317Z,3.80
2022-08-17T10:47:25.272Z,3.70
2022-08-17T10:48:25.271Z,3.70
2022-08-17T10:49:25.242Z,3.80
2022-08-17T10:50:25.309Z,3.20
2022-08-17T10:51:25.224Z,3.60
2022-08-17T10:52:25.280Z,4.10
2022-08-17T10:53:25.210Z,4.10
2022-08-17T10:54:25.225Z,3.60
2022-08-17T10:55:25.194Z,3.60
2022-08-17T10:56:25.174Z,3.90
2022-08-17T10:57:25.190Z,3.50
2022-08-17T10:58:25.166Z,3.80
2022-08-17T10:59:25.144Z,3.80
2022-08-17T11:00:27.607Z,4.30
2022-08-17T11:01:25.199Z,4.60
2022-08-17T11:02:25.131Z,3.60
2022-08-17T11:03:25.105Z,3.50
2022-08-17T11:04:25.286Z,3.30
2022-08-17T11:05:25.107Z,2.80
2022-08-17T11:06:25.114Z,3.20
2022-08-17T11:07:25.112Z,3.20
2022-08-17T11:08:25.057Z,3.30
2022-08-17T11:09:25.045Z,3.10
2022-08-17T11:10:25.055Z,3.00
2022-08-17T11:11:25.028Z,3.00
2022-08-17T11:12:25.026Z,2.80
2022-08-17T11:13:25.013Z,2.60
2022-08-17T11:14:25.001Z,2.70
2022-08-17T11:15:25.001Z,2.60
2022-08-17T11:16:24.987Z,2.50
2022-08-17T11:17:24.969Z,2.40
2022-08-17T11:18:24.965Z,2.60
2022-08-17T11:19:24.955Z,2.80
2022-08-17T11:20:24.953Z,2.40
2022-08-17T11:21:24.923Z,2.80
2022-08-17T11:22:26.925Z,3.10
2022-08-17T11:23:24.910Z,2.50
2022-08-17T11:24:24.901Z,3.70
2022-08-17T11:25:24.903Z,3.10
2022-08-17T11:26:24.882Z,2.90
2022-08-17T11:27:24.871Z,2.80
2022-08-17T11:28:24.861Z,2.90
2022-08-17T11:29:24.969Z,3.40
2022-08-17T11:30:26.730Z,3.30
2022-08-17T11:31:39.016Z,3.10
2022-08-17T11:32:24.831Z,3.50
2022-08-17T11:33:24.807Z,3.10
2022-08-17T11:34:24.802Z,3.30
2022-08-17T11:35:24.801Z,3.50
2022-08-17T11:36:24.786Z,3.00
2022-08-17T11:37:24.771Z,3.60
2022-08-17T11:38:24.765Z,3.60
2022-08-17T11:39:24.886Z,3.20
2022-08-17T11:40:24.758Z,3.40
2022-08-17T11:41:24.734Z,3.40
2022-08-17T11:42:24.728Z,3.70
2022-08-17T11:43:25.609Z,3.40
2022-08-17T11:44:24.709Z,2.90
2022-08-17T11:45:31.694Z,3.10
2022-08-17T11:46:24.696Z,3.50
2022-08-17T11:47:24.673Z,3.50
2022-08-17T11:48:28.260Z,3.10
2022-08-17T11:49:24.651Z,3.80
2022-08-17T11:50:27.887Z,3.40
2022-08-17T11:51:24.631Z,3.00
2022-08-17T11:52:24.648Z,3.20
2022-08-17T11:53:24.612Z,3.50
2022-08-17T11:54:33.655Z,3.50
2022-08-17T11:55:35.075Z,3.80
2022-08-17T11:56:24.592Z,3.90
2022-08-17T11:57:24.570Z,3.80
2022-08-17T11:58:24.566Z,3.40
2022-08-17T11:59:24.565Z,3.30
2022-08-17T12:00:24.551Z,3.80
2022-08-17T12:01:24.531Z,3.50
2022-08-17T12:02:24.530Z,3.70
2022-08-17T12:03:24.601Z,3.90
2022-08-17T12:04:24.576Z,3.60
2022-08-17T12:05:24.492Z,3.30
2022-08-17T12:06:24.490Z,3.80
2022-08-17T12:07:24.487Z,2.90
2022-08-17T12:08:24.474Z,3.40
2022-08-17T12:09:24.476Z,3.40
2022-08-17T12:10:24.459Z,3.80
2022-08-17T12:12:10.987Z,3.50
2022-08-17T12:12:24.434Z,3.40
2022-08-17T12:13:27.414Z,3.30
2022-08-17T12:14:45.031Z,3.40
2022-08-17T12:15:24.401Z,3.50
2022-08-17T12:16:24.392Z,3.60
2022-08-17T12:17:40.658Z,3.40
2022-08-17T12:18:24.375Z,3.40
2022-08-17T12:19:24.382Z,4.10
2022-08-17T12:20:24.400Z,3.80
2022-08-17T12:21:24.336Z,3.20
2022-08-17T12:22:24.335Z,3.50
2022-08-17T12:23:24.325Z,3.60
2022-08-17T12:24:24.310Z,3.40
2022-08-17T12:25:24.308Z,3.80
2022-08-17T12:26:24.291Z,3.70
2022-08-17T12:27:46.204Z,3.60
2022-08-17T12:28:24.283Z,3.40
2022-08-17T12:29:35.889Z,3.60
2022-08-17T12:30:24.273Z,3.90
2022-08-17T12:31:24.237Z,3.90
2022-08-17T12:32:24.235Z,3.40
2022-08-17T12:33:27.775Z,3.30
2022-08-17T12:34:24.214Z,3.50
2022-08-17T12:35:24.213Z,3.50
2022-08-17T12:36:24.190Z,3.70
2022-08-17T12:37:24.175Z,3.80
2022-08-17T12:38:32.383Z,3.70
2022-08-17T12:39:24.942Z,3.80
2022-08-17T12:40:24.171Z,3.90
2022-08-17T12:41:24.141Z,3.60
2022-08-17T12:42:24.134Z,3.70
2022-08-17T12:43:24.114Z,4.10
2022-08-17T12:44:24.111Z,4.30
2022-08-17T12:45:24.116Z,3.80
2022-08-17T12:46:24.088Z,4.20
2022-08-17T12:47:24.074Z,3.00
2022-08-17T12:48:24.071Z,3.40
2022-08-17T12:49:24.056Z,3.60
2022-08-17T12:50:28.495Z,3.50
2022-08-17T12:51:24.042Z,3.70
2022-08-17T12:52:24.031Z,3.80
2022-08-17T12:53:24.023Z,3.70
2022-08-17T12:54:24.013Z,3.40
2022-08-17T12:55:24.611Z,3.40
2022-08-17T12:56:23.990Z,3.80
2022-08-17T12:57:24.070Z,3.60
2022-08-17T12:58:23.967Z,3.20
2022-08-17T12:59:30.485Z,4.10
2022-08-17T13:00:23.989Z,3.50
2022-08-17T13:01:24.017Z,3.60
2022-08-17T13:02:23.933Z,3.50
2022-08-17T13:03:24.027Z,2.90
2022-08-17T13:04:23.936Z,3.50
2022-08-17T13:05:23.929Z,3.10
2022-08-17T13:06:23.922Z,3.40
2022-08-17T13:07:23.899Z,3.20
2022-08-17T13:08:23.950Z,3.70
2022-08-17T13:09:23.876Z,4.00
2022-08-17T13:10:27.424Z,3.90
2022-08-17T13:11:23.899Z,3.70
2022-08-17T13:12:24.786Z,3.40
2022-08-17T13:13:29.846Z,3.40
2022-08-17T13:14:23.831Z,3.10
2022-08-17T13:15:23.805Z,3.50
2022-08-17T13:16:23.788Z,2.90
2022-08-17T13:17:23.792Z,3.10
2022-08-17T13:18:23.769Z,3.30